createdAt,value
2023-03-03T00:03:00.900Z,72.80
2023-03-03T00:05:47.891Z,69.00
2023-03-03T00:08:34.773Z,81.40
2023-03-03T00:11:21.673Z,60.50
2023-03-03T00:14:25.672Z,59.10
2023-03-03T00:17:24.301Z,58.60
2023-03-03T00:20:40.961Z,57.80
2023-03-03T00:23:27.410Z,59.70
2023-03-03T00:26:29.519Z,62.10
2023-03-03T00:29:37.194Z,59.50
2023-03-03T00:32:25.533Z,55.00
2023-03-03T00:35:25.063Z,55.60
2023-03-03T00:38:18.360Z,51.80
2023-03-03T00:41:16.362Z,50.90
2023-03-03T00:44:31.972Z,50.20
2023-03-03T00:47:31.399Z,48.80
2023-03-03T00:50:32.549Z,48.90
2023-03-03T00:53:23.427Z,48.80
2023-03-03T00:56:10.552Z,48.60
2023-03-03T00:58:57.263Z,46.90
2023-03-03T01:01:55.494Z,46.90
2023-03-03T01:04:48.970Z,47.00
2023-03-03T01:07:36.217Z,46.00
2023-03-03T01:10:23.305Z,47.60
2023-03-03T01:13:13.199Z,45.00
2023-03-03T01:16:02.137Z,45.60
2023-03-03T01:18:48.880Z,45.50
2023-03-03T01:21:36.216Z,46.90
2023-03-03T01:24:23.284Z,46.00
2023-03-03T01:27:09.938Z,46.20
2023-03-03T01:29:57.293Z,46.40
2023-03-03T01:32:44.554Z,45.60
2023-03-03T01:35:31.127Z,46.60
2023-03-03T01:38:17.960Z,46.40
2023-03-03T01:41:05.323Z,48.30
2023-03-03T01:45:50.305Z,37.60
2023-03-03T01:48:42.879Z,48.50
2023-03-03T01:51:34.048Z,48.40
2023-03-03T01:54:39.993Z,49.30
2023-03-03T01:57:39.680Z,49.50
2023-03-03T02:00:29.745Z,50.90
2023-03-03T02:03:17.978Z,49.50
2023-03-03T02:06:11.676Z,50.20
2023-03-03T02:09:21.514Z,50.40
2023-03-03T02:12:11.537Z,50.60
2023-03-03T02:14:58.370Z,52.30
2023-03-03T02:17:47.169Z,52.70
2023-03-03T02:20:55.645Z,52.20
2023-03-03T02:23:53.361Z,52.50
2023-03-03T02:26:41.594Z,52.40
2023-03-03T02:29:28.311Z,53.80
2023-03-03T02:32:15.314Z,53.40
2023-03-03T02:35:03.842Z,53.60
2023-03-03T02:37:51.631Z,53.60
2023-03-03T02:40:44.945Z,53.40
2023-03-03T02:43:57.458Z,53.90
2023-03-03T02:46:47.638Z,54.50
2023-03-03T02:49:36.428Z,53.40
2023-03-03T02:52:22.925Z,53.00
2023-03-03T02:55:37.099Z,54.00
2023-03-03T02:58:24.000Z,55.70
2023-03-03T03:01:11.407Z,54.80
2023-03-03T03:04:00.908Z,55.20
2023-03-03T03:06:47.901Z,55.20
2023-03-03T03:09:34.386Z,55.80
2023-03-03T03:12:27.548Z,54.20
2023-03-03T03:15:16.024Z,54.80
2023-03-03T03:18:02.966Z,55.50
2023-03-03T03:20:49.824Z,54.40
2023-03-03T03:23:36.952Z,55.70
2023-03-03T03:26:28.957Z,56.60
2023-03-03T03:29:15.654Z,56.40
2023-03-03T03:32:02.347Z,56.40
2023-03-03T03:34:50.022Z,55.00
2023-03-03T03:37:36.708Z,57.20
2023-03-03T03:40:26.871Z,56.20
2023-03-03T03:43:13.310Z,55.40
2023-03-03T03:46:00.290Z,54.80
2023-03-03T03:48:47.004Z,54.60
2023-03-03T03:51:41.390Z,57.40
2023-03-03T03:54:28.787Z,55.70
2023-03-03T03:57:15.343Z,55.40
2023-03-03T04:00:03.064Z,54.70
2023-03-03T04:02:55.669Z,55.60
2023-03-03T04:05:43.170Z,55.00
2023-03-03T04:08:29.546Z,53.90
2023-03-03T04:11:17.125Z,54.20
2023-03-03T04:14:30.291Z,55.70
2023-03-03T04:17:22.410Z,54.30
2023-03-03T04:20:12.863Z,55.30
2023-03-03T04:23:00.142Z,55.00
2023-03-03T04:25:48.733Z,53.90
2023-03-03T04:28:36.509Z,55.00
2023-03-03T04:31:23.690Z,55.30
2023-03-03T04:34:10.693Z,56.20
2023-03-03T04:36:59.009Z,56.30
2023-03-03T04:39:45.908Z,84.60
2023-03-03T04:42:32.846Z,63.00
2023-03-03T04:45:19.551Z,59.00
2023-03-03T04:48:06.862Z,56.70
2023-03-03T04:50:54.967Z,56.60
2023-03-03T04:53:41.682Z,57.80
2023-03-03T04:56:33.087Z,56.90
2023-03-03T04:59:20.171Z,56.90
2023-03-03T05:02:07.119Z,56.80
2023-03-03T05:04:54.196Z,55.90
2023-03-03T05:07:41.058Z,55.30
2023-03-03T05:10:29.840Z,59.40
2023-03-03T05:13:19.564Z,66.30
2023-03-03T05:16:08.589Z,62.50
2023-03-03T05:19:01.470Z,65.40
2023-03-03T05:21:49.097Z,62.90
2023-03-03T05:24:36.476Z,62.40
2023-03-03T05:27:24.072Z,64.80
2023-03-03T05:30:12.306Z,57.60
2023-03-03T05:33:00.104Z,54.00
2023-03-03T05:43:11.137Z,40.80
2023-03-03T05:47:13.919Z,40.60
2023-03-03T05:50:02.313Z,49.00
2023-03-03T05:52:53.125Z,51.50
2023-03-03T05:55:40.218Z,50.50
2023-03-03T05:58:28.424Z,51.90
2023-03-03T06:01:23.788Z,52.60
2023-03-03T06:05:05.677Z,51.90
2023-03-03T06:07:55.233Z,47.30
2023-03-03T06:11:02.408Z,50.20
2023-03-03T06:13:50.747Z,48.50
2023-03-03T06:16:38.000Z,51.60
2023-03-03T06:19:25.275Z,52.20
2023-03-03T06:22:12.330Z,52.80
2023-03-03T06:25:42.147Z,44.00
2023-03-03T06:29:39.264Z,43.30
2023-03-03T06:32:29.629Z,52.10
2023-03-03T06:35:17.671Z,53.40
2023-03-03T06:38:04.558Z,52.90
2023-03-03T06:40:51.381Z,54.20
2023-03-03T06:43:38.860Z,52.90
2023-03-03T06:46:45.428Z,44.60
2023-03-03T06:50:13.280Z,43.80
2023-03-03T06:54:26.923Z,45.50
2023-03-03T06:57:23.266Z,53.10
2023-03-03T07:00:25.139Z,57.40
2023-03-03T07:03:16.247Z,58.70
2023-03-03T07:06:15.467Z,56.90
2023-03-03T07:09:01.899Z,56.10
2023-03-03T07:12:01.459Z,55.00
2023-03-03T07:14:55.701Z,55.60
2023-03-03T07:17:50.508Z,54.90
2023-03-03T07:23:31.107Z,42.20
2023-03-03T07:27:29.147Z,40.80
2023-03-03T07:30:28.109Z,47.20
2023-03-03T07:33:28.079Z,46.90
2023-03-03T07:36:35.972Z,44.20
2023-03-03T07:42:08.690Z,36.10
2023-03-03T07:45:00.230Z,44.60
2023-03-03T07:47:46.909Z,46.30
2023-03-03T07:50:35.150Z,43.40
2023-03-03T07:53:30.069Z,43.90
2023-03-03T07:56:34.460Z,40.40
2023-03-03T07:59:26.790Z,39.60
2023-03-03T08:02:35.042Z,37.50
2023-03-03T08:17:38.764Z,31.30
2023-03-03T08:31:41.199Z,29.80
2023-03-03T08:35:09.931Z,28.40
2023-03-03T08:38:58.241Z,29.50
2023-03-03T08:41:47.272Z,36.60
2023-03-03T08:44:32.533Z,36.30
2023-03-03T08:47:18.070Z,36.00
2023-03-03T08:50:07.113Z,35.90
2023-03-03T09:22:38.086Z,29.80
2023-03-03T09:36:39.203Z,28.10
2023-03-03T09:39:39.339Z,27.50
2023-03-03T09:43:24.249Z,27.10
2023-03-03T09:46:32.496Z,34.20
2023-03-03T09:49:36.686Z,31.80
2023-03-03T09:53:00.810Z,31.60
2023-03-03T09:56:02.467Z,33.50
2023-03-03T09:59:09.480Z,33.80
2023-03-03T10:01:56.238Z,34.40
2023-03-03T10:04:54.407Z,34.80
2023-03-03T10:08:16.147Z,33.00
2023-03-03T10:11:27.553Z,32.20
2023-03-03T10:14:32.253Z,32.70
2023-03-03T10:17:45.255Z,32.20
2023-03-03T10:21:02.691Z,31.50
2023-03-03T10:24:30.226Z,32.70
2023-03-03T10:27:43.364Z,32.00
2023-03-03T10:31:04.039Z,33.30
2023-03-03T10:33:46.678Z,34.10
2023-03-03T10:36:33.213Z,33.80
2023-03-03T10:39:39.771Z,35.40
2023-03-03T10:42:56.259Z,32.20
2023-03-03T10:46:01.270Z,30.60
2023-03-03T10:49:08.730Z,31.20
2023-03-03T10:52:05.748Z,34.20
2023-03-03T10:55:20.054Z,32.90
2023-03-03T10:58:38.015Z,31.70
2023-03-03T11:01:45.515Z,28.00
2023-03-03T11:04:47.609Z,30.00
2023-03-03T11:07:57.743Z,29.70
2023-03-03T11:11:05.414Z,31.60
2023-03-03T11:13:56.382Z,31.00
2023-03-03T11:16:53.210Z,31.40
2023-03-03T11:19:39.708Z,29.20
2023-03-03T11:22:49.148Z,27.60
2023-03-03T11:25:55.889Z,28.30
2023-03-03T11:29:05.595Z,28.00
2023-03-03T11:32:22.729Z,27.50
2023-03-03T11:35:21.334Z,30.10
2023-03-03T11:38:30.032Z,30.90
2023-03-03T11:41:39.691Z,32.00
2023-03-03T11:44:44.251Z,32.50
2023-03-03T11:47:40.808Z,36.20
2023-03-03T11:50:42.724Z,31.10
2023-03-03T11:53:38.994Z,33.10
2023-03-03T11:56:46.834Z,32.20
2023-03-03T11:59:42.486Z,34.70
2023-03-03T12:02:46.163Z,31.60
2023-03-03T12:05:50.504Z,33.70
2023-03-03T12:08:42.066Z,35.80
2023-03-03T12:11:35.616Z,34.80
2023-03-03T12:14:37.128Z,36.90
2023-03-03T12:18:04.722Z,37.10
2023-03-03T12:20:57.854Z,33.70
2023-03-03T12:23:50.532Z,34.40
2023-03-03T12:26:59.752Z,35.00
2023-03-03T12:30:05.001Z,36.60
2023-03-03T12:32:56.750Z,34.40
2023-03-03T12:36:14.450Z,36.00
2023-03-03T12:39:13.563Z,34.80
2023-03-03T12:42:26.810Z,33.80
2023-03-03T12:45:30.035Z,36.80
2023-03-03T12:48:36.610Z,37.50
2023-03-03T12:51:41.983Z,34.50
2023-03-03T12:54:57.644Z,34.90
2023-03-03T12:57:55.614Z,33.80
2023-03-03T13:00:48.391Z,34.90
2023-03-03T13:03:58.453Z,34.20
2023-03-03T13:07:04.602Z,34.30
2023-03-03T13:10:16.785Z,34.70
2023-03-03T13:13:16.828Z,35.40
2023-03-03T13:16:16.783Z,35.10
2023-03-03T13:19:15.974Z,32.70
2023-03-03T13:22:16.211Z,30.10
2023-03-03T13:25:30.664Z,31.80
2023-03-03T13:28:23.496Z,31.60
2023-03-03T13:31:11.193Z,31.10
2023-03-03T13:34:00.799Z,28.50
2023-03-03T13:37:07.956Z,27.00
2023-03-03T13:40:50.971Z,24.20
2023-03-03T13:44:51.197Z,24.60
2023-03-03T13:48:09.209Z,31.30
2023-03-03T13:51:02.638Z,30.50
2023-03-03T13:53:52.366Z,31.40
2023-03-03T13:59:22.996Z,26.60
2023-03-03T14:02:48.329Z,29.90
2023-03-03T14:05:44.418Z,30.70
2023-03-03T14:08:56.200Z,28.30
2023-03-03T14:11:48.718Z,30.00
2023-03-03T14:25:20.896Z,24.50
2023-03-03T14:28:47.685Z,24.20
2023-03-03T14:31:42.519Z,29.10
2023-03-03T14:51:39.486Z,23.80
2023-03-03T14:58:41.425Z,25.30
2023-03-03T15:01:38.342Z,24.90
2023-03-03T15:31:41.680Z,20.70
2023-03-03T15:34:59.886Z,19.30
2023-03-03T15:38:43.600Z,18.50
2023-03-03T15:53:34.768Z,17.80
2023-03-03T15:56:51.336Z,20.40
2023-03-03T16:00:05.376Z,20.90
2023-03-03T16:02:59.153Z,19.10
2023-03-03T16:06:09.079Z,18.90
2023-03-03T16:09:16.823Z,18.50
2023-03-03T16:12:31.608Z,18.30
2023-03-03T16:16:02.953Z,18.00
2023-03-03T16:19:04.068Z,17.90
2023-03-03T16:22:24.710Z,18.90
2023-03-03T16:26:03.990Z,21.20
2023-03-03T16:29:03.653Z,20.80
2023-03-03T16:31:57.771Z,21.30
2023-03-03T16:35:07.662Z,22.40
2023-03-03T16:38:05.637Z,22.50
2023-03-03T16:40:55.063Z,22.50
2023-03-03T16:44:00.029Z,22.80
2023-03-03T16:50:10.279Z,19.50
2023-03-03T16:53:15.413Z,23.90
2023-03-03T16:57:01.809Z,24.40
2023-03-03T17:00:05.010Z,24.90
2023-03-03T17:03:22.445Z,26.00
2023-03-03T17:06:10.904Z,25.30
2023-03-03T17:09:48.624Z,26.80
2023-03-03T17:13:29.660Z,25.70
2023-03-03T17:16:51.787Z,20.70
2023-03-03T17:31:48.960Z,22.40
2023-03-03T17:34:54.957Z,26.20
2023-03-03T17:38:03.423Z,26.60
2023-03-03T17:45:38.264Z,26.60
2023-03-03T17:53:20.988Z,24.40
2023-03-03T17:57:14.007Z,21.30
2023-03-03T18:00:19.377Z,24.60
2023-03-03T18:03:29.853Z,25.00
2023-03-03T18:06:37.514Z,25.50
2023-03-03T18:09:43.771Z,24.90
2023-03-03T18:13:05.345Z,20.60
2023-03-03T18:16:34.729Z,20.10
2023-03-03T18:21:05.934Z,21.40
2023-03-03T18:25:22.110Z,24.70
2023-03-03T18:29:19.209Z,21.90
2023-03-03T18:33:01.981Z,20.40
2023-03-03T19:05:48.352Z,24.80
2023-03-03T19:08:59.461Z,27.30
2023-03-03T19:11:54.778Z,28.50
2023-03-03T19:14:43.811Z,28.10
2023-03-03T19:20:53.673Z,23.30
2023-03-03T19:24:04.696Z,22.40
2023-03-03T19:27:39.649Z,22.60
2023-03-03T19:32:16.469Z,23.50
2023-03-03T19:35:30.727Z,24.50
2023-03-03T19:40:01.444Z,23.10
2023-03-03T19:43:06.672Z,29.20
2023-03-03T19:46:24.796Z,30.00
2023-03-03T19:49:43.470Z,30.50
2023-03-03T19:54:44.327Z,23.90
2023-03-03T19:58:01.768Z,29.10
2023-03-03T20:01:09.081Z,28.40
2023-03-03T20:04:06.526Z,29.20
2023-03-03T20:07:42.234Z,28.20
2023-03-03T20:10:56.460Z,29.00
2023-03-03T20:17:57.239Z,29.90
2023-03-03T20:20:46.998Z,30.90
2023-03-03T20:23:54.236Z,29.70
2023-03-03T20:26:59.514Z,29.70
2023-03-03T20:30:07.787Z,29.90
2023-03-03T20:33:10.972Z,29.00
2023-03-03T20:36:10.365Z,27.90
2023-03-03T20:39:08.848Z,28.60
2023-03-03T20:42:18.730Z,29.20
2023-03-03T20:45:18.267Z,28.90
2023-03-03T20:48:12.499Z,29.10
2023-03-03T20:51:22.988Z,30.60
2023-03-03T20:54:37.513Z,29.70
2023-03-03T20:57:42.059Z,32.50
2023-03-03T21:00:47.901Z,31.30
2023-03-03T21:03:38.019Z,31.90
2023-03-03T21:06:39.026Z,32.20
2023-03-03T21:09:38.353Z,31.50
2023-03-03T21:12:31.364Z,32.50
2023-03-03T21:15:36.694Z,32.30
2023-03-03T21:18:27.045Z,32.60
2023-03-03T21:21:13.891Z,32.50
2023-03-03T21:24:01.122Z,32.70
2023-03-03T21:27:03.387Z,32.10
2023-03-03T21:30:09.728Z,33.20
2023-03-03T21:32:56.736Z,32.20
2023-03-03T21:36:07.160Z,31.50
2023-03-03T21:38:54.286Z,31.10
2023-03-03T21:41:56.029Z,30.50
2023-03-03T21:44:50.275Z,29.70
2023-03-03T21:47:36.912Z,30.90
2023-03-03T21:50:23.214Z,30.10
2023-03-03T21:53:09.881Z,29.10
2023-03-03T21:55:57.013Z,32.00
2023-03-03T21:58:45.087Z,30.60
2023-03-03T22:01:31.440Z,29.70
2023-03-03T22:04:18.389Z,30.30
2023-03-03T22:07:05.905Z,32.00
2023-03-03T22:09:55.788Z,32.00
2023-03-03T22:12:44.702Z,33.30
2023-03-03T22:15:34.582Z,32.30
2023-03-03T22:18:21.676Z,32.90
2023-03-03T22:21:09.417Z,32.80
2023-03-03T22:23:56.267Z,33.30
2023-03-03T22:26:42.912Z,32.90
2023-03-03T22:29:29.762Z,31.60
2023-03-03T22:32:16.466Z,32.60
2023-03-03T22:35:03.855Z,32.00
2023-03-03T22:37:51.154Z,31.40
2023-03-03T22:40:37.926Z,32.20
2023-03-03T22:43:25.807Z,32.90
2023-03-03T22:46:13.103Z,33.60
2023-03-03T22:49:00.005Z,33.90
2023-03-03T22:51:46.595Z,34.30
2023-03-03T22:54:33.146Z,34.20
2023-03-03T22:57:20.041Z,34.80
2023-03-03T23:00:12.817Z,34.00
2023-03-03T23:02:59.053Z,31.80
2023-03-03T23:05:45.811Z,32.20
2023-03-03T23:08:33.183Z,30.60
2023-03-03T23:11:21.890Z,30.60
2023-03-03T23:14:08.729Z,28.50
2023-03-03T23:16:57.104Z,29.30
2023-03-03T23:19:46.457Z,29.10
2023-03-03T23:22:33.585Z,28.80
2023-03-03T23:25:23.203Z,29.10
2023-03-03T23:28:10.640Z,29.20
2023-03-03T23:30:57.075Z,29.00
2023-03-03T23:33:43.873Z,28.30
2023-03-03T23:36:31.193Z,27.60
2023-03-03T23:39:18.162Z,28.80
2023-03-03T23:42:05.153Z,31.00
2023-03-03T23:44:52.045Z,30.30
2023-03-03T23:47:38.660Z,29.10
2023-03-03T23:50:25.397Z,30.30
2023-03-03T23:53:12.025Z,28.90
2023-03-03T23:55:58.827Z,27.90
2023-03-03T23:58:47.127Z,28.60
